sensor_id;sensor_type;location;lat;lon;timestamp;P1;durP1;ratioP1;P2;durP2;ratioP2
23684;SDS011;12020;51.384;6.908;2024-01-30T00:00:58;8.87;;;7.90;;
23684;SDS011;12020;51.384;6.908;2024-01-30T00:03:25;9.50;;;8.10;;
23684;SDS011;12020;51.384;6.908;2024-01-30T00:05:54;10.23;;;8.50;;
23684;SDS011;12020;51.384;6.908;2024-01-30T00:08:20;9.30;;;7.93;;
23684;SDS011;12020;51.384;6.908;2024-01-30T00:10:46;8.95;;;7.82;;
23684;SDS011;12020;51.384;6.908;2024-01-30T00:13:12;9.60;;;8.10;;
23684;SDS011;12020;51.384;6.908;2024-01-30T00:15:39;8.87;;;7.73;;
23684;SDS011;12020;51.384;6.908;2024-01-30T00:18:05;10.68;;;8.00;;
23684;SDS011;12020;51.384;6.908;2024-01-30T00:20:34;10.13;;;8.20;;
23684;SDS011;12020;51.384;6.908;2024-01-30T00:23:01;10.02;;;7.93;;
23684;SDS011;12020;51.384;6.908;2024-01-30T00:25:28;10.03;;;8.50;;
23684;SDS011;12020;51.384;6.908;2024-01-30T00:27:55;9.77;;;8.40;;
23684;SDS011;12020;51.384;6.908;2024-01-30T00:30:23;9.15;;;8.15;;
23684;SDS011;12020;51.384;6.908;2024-01-30T00:32:52;9.73;;;8.13;;
23684;SDS011;12020;51.384;6.908;2024-01-30T00:35:19;9.40;;;8.18;;
23684;SDS011;12020;51.384;6.908;2024-01-30T00:37:48;10.02;;;8.15;;
23684;SDS011;12020;51.384;6.908;2024-01-30T00:40:24;9.90;;;8.32;;
23684;SDS011;12020;51.384;6.908;2024-01-30T00:42:52;10.27;;;9.00;;
23684;SDS011;12020;51.384;6.908;2024-01-30T00:45:18;10.02;;;8.70;;
23684;SDS011;12020;51.384;6.908;2024-01-30T00:50:19;9.55;;;8.55;;
23684;SDS011;12020;51.384;6.908;2024-01-30T00:52:46;10.30;;;8.85;;
23684;SDS011;12020;51.384;6.908;2024-01-30T00:55:13;9.85;;;8.82;;
23684;SDS011;12020;51.384;6.908;2024-01-30T00:57:39;11.00;;;9.00;;
23684;SDS011;12020;51.384;6.908;2024-01-30T01:07:41;10.63;;;9.52;;
23684;SDS011;12020;51.384;6.908;2024-01-30T01:10:09;10.35;;;8.80;;
23684;SDS011;12020;51.384;6.908;2024-01-30T01:12:39;9.82;;;8.82;;
23684;SDS011;12020;51.384;6.908;2024-01-30T01:17:38;10.95;;;9.40;;
23684;SDS011;12020;51.384;6.908;2024-01-30T01:20:14;10.40;;;9.10;;
23684;SDS011;12020;51.384;6.908;2024-01-30T01:22:41;9.80;;;8.80;;
23684;SDS011;12020;51.384;6.908;2024-01-30T01:25:10;10.65;;;9.48;;
23684;SDS011;12020;51.384;6.908;2024-01-30T01:27:36;11.05;;;9.23;;
23684;SDS011;12020;51.384;6.908;2024-01-30T01:30:08;11.65;;;8.70;;
23684;SDS011;12020;51.384;6.908;2024-01-30T01:32:36;11.25;;;9.18;;
23684;SDS011;12020;51.384;6.908;2024-01-30T01:35:04;10.27;;;8.82;;
23684;SDS011;12020;51.384;6.908;2024-01-30T01:37:33;9.98;;;8.98;;
23684;SDS011;12020;51.384;6.908;2024-01-30T01:40:12;10.40;;;8.68;;
23684;SDS011;12020;51.384;6.908;2024-01-30T01:42:41;10.47;;;9.17;;
23684;SDS011;12020;51.384;6.908;2024-01-30T01:45:07;10.93;;;8.83;;
23684;SDS011;12020;51.384;6.908;2024-01-30T01:47:35;10.30;;;8.82;;
23684;SDS011;12020;51.384;6.908;2024-01-30T01:50:04;11.17;;;9.10;;
23684;SDS011;12020;51.384;6.908;2024-01-30T01:52:31;10.15;;;9.02;;
23684;SDS011;12020;51.384;6.908;2024-01-30T01:54:57;10.50;;;9.32;;
23684;SDS011;12020;51.384;6.908;2024-01-30T01:57:23;10.90;;;8.70;;
23684;SDS011;12020;51.384;6.908;2024-01-30T01:59:50;11.35;;;9.15;;
23684;SDS011;12020;51.384;6.908;2024-01-30T02:02:17;10.97;;;8.70;;
23684;SDS011;12020;51.384;6.908;2024-01-30T02:04:49;10.80;;;8.90;;
23684;SDS011;12020;51.384;6.908;2024-01-30T02:07:14;10.85;;;8.90;;
23684;SDS011;12020;51.384;6.908;2024-01-30T02:09:43;10.30;;;9.30;;
23684;SDS011;12020;51.384;6.908;2024-01-30T02:12:11;11.50;;;9.05;;
23684;SDS011;12020;51.384;6.908;2024-01-30T02:14:46;10.18;;;8.68;;
23684;SDS011;12020;51.384;6.908;2024-01-30T02:17:21;9.88;;;8.85;;
23684;SDS011;12020;51.384;6.908;2024-01-30T02:19:51;9.98;;;8.98;;
23684;SDS011;12020;51.384;6.908;2024-01-30T02:24:54;9.98;;;8.80;;
23684;SDS011;12020;51.384;6.908;2024-01-30T02:27:24;10.05;;;9.00;;
23684;SDS011;12020;51.384;6.908;2024-01-30T02:29:56;9.93;;;8.93;;
23684;SDS011;12020;51.384;6.908;2024-01-30T02:32:25;9.63;;;8.43;;
23684;SDS011;12020;51.384;6.908;2024-01-30T02:34:52;10.10;;;8.75;;
23684;SDS011;12020;51.384;6.908;2024-01-30T02:37:19;10.80;;;8.82;;
23684;SDS011;12020;51.384;6.908;2024-01-30T02:39:46;9.88;;;8.77;;
23684;SDS011;12020;51.384;6.908;2024-01-30T02:42:13;11.38;;;8.65;;
23684;SDS011;12020;51.384;6.908;2024-01-30T02:44:44;9.88;;;8.70;;
23684;SDS011;12020;51.384;6.908;2024-01-30T02:47:14;10.05;;;8.35;;
23684;SDS011;12020;51.384;6.908;2024-01-30T02:52:09;9.50;;;8.50;;
23684;SDS011;12020;51.384;6.908;2024-01-30T02:54:35;9.33;;;8.33;;
23684;SDS011;12020;51.384;6.908;2024-01-30T03:02:07;10.02;;;8.30;;
23684;SDS011;12020;51.384;6.908;2024-01-30T03:04:41;11.27;;;8.38;;
23684;SDS011;12020;51.384;6.908;2024-01-30T03:07:15;10.13;;;8.65;;
23684;SDS011;12020;51.384;6.908;2024-01-30T03:09:54;9.45;;;8.40;;
23684;SDS011;12020;51.384;6.908;2024-01-30T03:12:22;10.52;;;8.25;;
23684;SDS011;12020;51.384;6.908;2024-01-30T03:14:48;10.02;;;8.65;;
23684;SDS011;12020;51.384;6.908;2024-01-30T03:17:30;8.70;;;7.53;;
23684;SDS011;12020;51.384;6.908;2024-01-30T03:19:56;10.90;;;8.27;;
23684;SDS011;12020;51.384;6.908;2024-01-30T03:24:51;10.43;;;8.40;;
23684;SDS011;12020;51.384;6.908;2024-01-30T03:27:17;9.70;;;8.30;;
23684;SDS011;12020;51.384;6.908;2024-01-30T03:29:45;9.95;;;8.40;;
23684;SDS011;12020;51.384;6.908;2024-01-30T03:32:10;9.43;;;8.43;;
23684;SDS011;12020;51.384;6.908;2024-01-30T03:37:16;10.13;;;8.32;;
23684;SDS011;12020;51.384;6.908;2024-01-30T03:39:49;10.27;;;8.80;;
23684;SDS011;12020;51.384;6.908;2024-01-30T03:42:24;10.05;;;8.10;;
23684;SDS011;12020;51.384;6.908;2024-01-30T03:45:03;10.00;;;8.27;;
23684;SDS011;12020;51.384;6.908;2024-01-30T03:50:05;10.40;;;8.02;;
23684;SDS011;12020;51.384;6.908;2024-01-30T03:52:32;9.93;;;8.90;;
23684;SDS011;12020;51.384;6.908;2024-01-30T03:57:29;10.55;;;8.52;;
23684;SDS011;12020;51.384;6.908;2024-01-30T04:02:27;11.35;;;8.00;;
23684;SDS011;12020;51.384;6.908;2024-01-30T04:04:56;9.17;;;8.00;;
23684;SDS011;12020;51.384;6.908;2024-01-30T04:07:33;9.38;;;7.20;;
23684;SDS011;12020;51.384;6.908;2024-01-30T04:10:03;9.02;;;7.70;;
23684;SDS011;12020;51.384;6.908;2024-01-30T04:17:36;8.60;;;7.80;;
23684;SDS011;12020;51.384;6.908;2024-01-30T04:25:03;9.70;;;7.70;;
23684;SDS011;12020;51.384;6.908;2024-01-30T04:27:31;10.00;;;7.57;;
23684;SDS011;12020;51.384;6.908;2024-01-30T04:32:30;7.90;;;7.07;;
23684;SDS011;12020;51.384;6.908;2024-01-30T04:35:03;9.38;;;7.22;;
23684;SDS011;12020;51.384;6.908;2024-01-30T04:37:30;7.73;;;6.90;;
23684;SDS011;12020;51.384;6.908;2024-01-30T04:40:02;8.90;;;7.07;;
23684;SDS011;12020;51.384;6.908;2024-01-30T04:42:34;8.27;;;7.20;;
23684;SDS011;12020;51.384;6.908;2024-01-30T04:45:00;8.02;;;7.20;;
23684;SDS011;12020;51.384;6.908;2024-01-30T04:47:27;8.30;;;6.83;;
23684;SDS011;12020;51.384;6.908;2024-01-30T04:49:55;8.05;;;6.78;;
23684;SDS011;12020;51.384;6.908;2024-01-30T04:52:20;7.93;;;7.07;;
23684;SDS011;12020;51.384;6.908;2024-01-30T04:54:48;7.72;;;6.75;;
23684;SDS011;12020;51.384;6.908;2024-01-30T04:57:15;8.02;;;6.88;;
23684;SDS011;12020;51.384;6.908;2024-01-30T04:59:46;8.10;;;7.22;;
23684;SDS011;12020;51.384;6.908;2024-01-30T05:02:14;9.20;;;7.00;;
23684;SDS011;12020;51.384;6.908;2024-01-30T05:04:53;8.52;;;6.88;;
23684;SDS011;12020;51.384;6.908;2024-01-30T05:07:21;8.55;;;6.80;;
23684;SDS011;12020;51.384;6.908;2024-01-30T05:12:24;7.45;;;6.50;;
23684;SDS011;12020;51.384;6.908;2024-01-30T05:14:52;8.82;;;6.72;;
23684;SDS011;12020;51.384;6.908;2024-01-30T05:17:26;7.47;;;6.53;;
23684;SDS011;12020;51.384;6.908;2024-01-30T05:19:52;7.95;;;6.93;;
23684;SDS011;12020;51.384;6.908;2024-01-30T05:22:25;8.02;;;6.63;;
23684;SDS011;12020;51.384;6.908;2024-01-30T05:24:51;7.93;;;6.72;;
23684;SDS011;12020;51.384;6.908;2024-01-30T05:27:19;9.93;;;7.30;;
23684;SDS011;12020;51.384;6.908;2024-01-30T05:29:48;8.23;;;6.93;;
23684;SDS011;12020;51.384;6.908;2024-01-30T05:32:18;8.10;;;6.43;;
23684;SDS011;12020;51.384;6.908;2024-01-30T05:34:46;7.83;;;6.73;;
23684;SDS011;12020;51.384;6.908;2024-01-30T05:37:12;7.78;;;6.57;;
23684;SDS011;12020;51.384;6.908;2024-01-30T05:39:44;8.15;;;6.90;;
23684;SDS011;12020;51.384;6.908;2024-01-30T05:42:15;8.65;;;7.03;;
23684;SDS011;12020;51.384;6.908;2024-01-30T05:44:43;7.80;;;7.00;;
23684;SDS011;12020;51.384;6.908;2024-01-30T05:47:15;7.63;;;6.55;;
23684;SDS011;12020;51.384;6.908;2024-01-30T05:49:41;8.38;;;6.55;;
23684;SDS011;12020;51.384;6.908;2024-01-30T05:52:07;8.02;;;7.20;;
23684;SDS011;12020;51.384;6.908;2024-01-30T05:54:33;8.15;;;7.07;;
23684;SDS011;12020;51.384;6.908;2024-01-30T05:57:00;7.60;;;6.80;;
23684;SDS011;12020;51.384;6.908;2024-01-30T06:02:06;7.90;;;7.10;;
23684;SDS011;12020;51.384;6.908;2024-01-30T06:04:37;8.98;;;6.55;;
23684;SDS011;12020;51.384;6.908;2024-01-30T06:07:05;8.13;;;6.75;;
23684;SDS011;12020;51.384;6.908;2024-01-30T06:09:40;8.68;;;6.85;;
23684;SDS011;12020;51.384;6.908;2024-01-30T06:12:09;8.05;;;7.00;;
23684;SDS011;12020;51.384;6.908;2024-01-30T06:14:43;7.80;;;7.00;;
23684;SDS011;12020;51.384;6.908;2024-01-30T06:17:10;7.53;;;6.70;;
23684;SDS011;12020;51.384;6.908;2024-01-30T06:19:37;7.72;;;6.85;;
23684;SDS011;12020;51.384;6.908;2024-01-30T06:22:06;8.52;;;7.07;;
23684;SDS011;12020;51.384;6.908;2024-01-30T06:24:36;7.25;;;6.20;;
23684;SDS011;12020;51.384;6.908;2024-01-30T06:27:02;7.70;;;6.53;;
23684;SDS011;12020;51.384;6.908;2024-01-30T06:29:29;7.90;;;7.00;;
23684;SDS011;12020;51.384;6.908;2024-01-30T06:31:55;10.57;;;6.70;;
23684;SDS011;12020;51.384;6.908;2024-01-30T06:36:55;7.30;;;6.50;;
23684;SDS011;12020;51.384;6.908;2024-01-30T06:39:21;7.85;;;6.80;;
23684;SDS011;12020;51.384;6.908;2024-01-30T06:41:48;10.93;;;7.38;;
23684;SDS011;12020;51.384;6.908;2024-01-30T06:44:14;7.90;;;6.50;;
23684;SDS011;12020;51.384;6.908;2024-01-30T06:49:24;8.45;;;6.75;;
23684;SDS011;12020;51.384;6.908;2024-01-30T06:51:52;6.57;;;5.88;;
23684;SDS011;12020;51.384;6.908;2024-01-30T06:54:21;7.90;;;6.65;;
23684;SDS011;12020;51.384;6.908;2024-01-30T06:56:48;7.70;;;6.78;;
23684;SDS011;12020;51.384;6.908;2024-01-30T06:59:14;7.00;;;6.28;;
23684;SDS011;12020;51.384;6.908;2024-01-30T07:04:10;7.13;;;6.43;;
23684;SDS011;12020;51.384;6.908;2024-01-30T07:06:39;8.05;;;6.50;;
23684;SDS011;12020;51.384;6.908;2024-01-30T07:09:05;7.60;;;6.80;;
23684;SDS011;12020;51.384;6.908;2024-01-30T07:11:30;8.15;;;6.35;;
23684;SDS011;12020;51.384;6.908;2024-01-30T07:13:57;8.40;;;6.53;;
23684;SDS011;12020;51.384;6.908;2024-01-30T07:16:22;7.07;;;6.23;;
23684;SDS011;12020;51.384;6.908;2024-01-30T07:18:48;7.33;;;6.20;;
23684;SDS011;12020;51.384;6.908;2024-01-30T07:21:14;8.43;;;6.43;;
23684;SDS011;12020;51.384;6.908;2024-01-30T07:23:40;8.33;;;6.40;;
23684;SDS011;12020;51.384;6.908;2024-01-30T07:26:07;7.07;;;6.10;;
23684;SDS011;12020;51.384;6.908;2024-01-30T07:28:33;7.53;;;6.00;;
23684;SDS011;12020;51.384;6.908;2024-01-30T07:30:59;6.93;;;6.22;;
23684;SDS011;12020;51.384;6.908;2024-01-30T07:33:25;7.13;;;6.13;;
23684;SDS011;12020;51.384;6.908;2024-01-30T07:35:52;7.23;;;6.37;;
23684;SDS011;12020;51.384;6.908;2024-01-30T07:38:18;7.30;;;6.40;;
23684;SDS011;12020;51.384;6.908;2024-01-30T07:40:44;7.63;;;6.60;;
23684;SDS011;12020;51.384;6.908;2024-01-30T07:43:09;7.57;;;6.63;;
23684;SDS011;12020;51.384;6.908;2024-01-30T07:45:35;7.78;;;6.97;;
23684;SDS011;12020;51.384;6.908;2024-01-30T07:48:02;7.00;;;6.35;;
23684;SDS011;12020;51.384;6.908;2024-01-30T07:50:28;7.65;;;6.40;;
23684;SDS011;12020;51.384;6.908;2024-01-30T07:52:55;7.43;;;6.43;;
23684;SDS011;12020;51.384;6.908;2024-01-30T07:55:21;8.07;;;6.60;;
23684;SDS011;12020;51.384;6.908;2024-01-30T07:57:51;7.40;;;6.50;;
23684;SDS011;12020;51.384;6.908;2024-01-30T08:00:17;9.77;;;6.70;;
23684;SDS011;12020;51.384;6.908;2024-01-30T08:02:46;7.35;;;6.63;;
23684;SDS011;12020;51.384;6.908;2024-01-30T08:05:21;8.27;;;6.90;;
23684;SDS011;12020;51.384;6.908;2024-01-30T08:07:48;7.82;;;6.28;;
23684;SDS011;12020;51.384;6.908;2024-01-30T08:10:14;6.70;;;6.00;;
23684;SDS011;12020;51.384;6.908;2024-01-30T08:12:40;7.85;;;6.25;;
23684;SDS011;12020;51.384;6.908;2024-01-30T08:15:06;8.38;;;6.55;;
23684;SDS011;12020;51.384;6.908;2024-01-30T08:17:33;8.10;;;6.87;;
23684;SDS011;12020;51.384;6.908;2024-01-30T08:19:59;7.70;;;6.45;;
23684;SDS011;12020;51.384;6.908;2024-01-30T08:22:24;7.82;;;6.50;;
23684;SDS011;12020;51.384;6.908;2024-01-30T08:24:50;9.07;;;6.60;;
23684;SDS011;12020;51.384;6.908;2024-01-30T08:27:17;6.75;;;6.05;;
23684;SDS011;12020;51.384;6.908;2024-01-30T08:29:42;8.43;;;6.47;;
23684;SDS011;12020;51.384;6.908;2024-01-30T08:32:08;7.10;;;6.40;;
23684;SDS011;12020;51.384;6.908;2024-01-30T08:34:34;7.88;;;6.10;;
23684;SDS011;12020;51.384;6.908;2024-01-30T08:36:59;7.75;;;6.70;;
23684;SDS011;12020;51.384;6.908;2024-01-30T08:39:25;6.90;;;6.13;;
23684;SDS011;12020;51.384;6.908;2024-01-30T08:41:51;7.93;;;6.45;;
23684;SDS011;12020;51.384;6.908;2024-01-30T08:44:16;7.45;;;5.82;;
23684;SDS011;12020;51.384;6.908;2024-01-30T08:46:43;8.70;;;6.78;;
23684;SDS011;12020;51.384;6.908;2024-01-30T08:49:10;8.20;;;6.30;;
23684;SDS011;12020;51.384;6.908;2024-01-30T08:51:38;7.55;;;6.28;;
23684;SDS011;12020;51.384;6.908;2024-01-30T08:54:06;6.97;;;6.28;;
23684;SDS011;12020;51.384;6.908;2024-01-30T08:56:33;8.05;;;6.45;;
23684;SDS011;12020;51.384;6.908;2024-01-30T08:58:59;7.75;;;6.10;;
23684;SDS011;12020;51.384;6.908;2024-01-30T09:01:24;7.45;;;6.22;;
23684;SDS011;12020;51.384;6.908;2024-01-30T09:03:50;7.10;;;6.28;;
23684;SDS011;12020;51.384;6.908;2024-01-30T09:06:16;7.57;;;6.40;;
23684;SDS011;12020;51.384;6.908;2024-01-30T09:08:42;7.37;;;6.63;;
23684;SDS011;12020;51.384;6.908;2024-01-30T09:11:14;7.53;;;6.50;;
23684;SDS011;12020;51.384;6.908;2024-01-30T09:13:40;7.85;;;6.45;;
23684;SDS011;12020;51.384;6.908;2024-01-30T09:16:06;7.20;;;6.32;;
23684;SDS011;12020;51.384;6.908;2024-01-30T09:18:32;7.07;;;6.32;;
23684;SDS011;12020;51.384;6.908;2024-01-30T09:20:58;7.28;;;6.50;;
23684;SDS011;12020;51.384;6.908;2024-01-30T09:23:24;10.10;;;6.70;;
23684;SDS011;12020;51.384;6.908;2024-01-30T09:25:52;7.15;;;6.25;;
23684;SDS011;12020;51.384;6.908;2024-01-30T09:28:18;7.88;;;6.80;;
23684;SDS011;12020;51.384;6.908;2024-01-30T09:30:43;7.30;;;6.20;;
23684;SDS011;12020;51.384;6.908;2024-01-30T09:33:09;8.48;;;6.75;;
23684;SDS011;12020;51.384;6.908;2024-01-30T09:35:35;8.02;;;6.70;;
23684;SDS011;12020;51.384;6.908;2024-01-30T09:38:01;8.23;;;6.53;;
23684;SDS011;12020;51.384;6.908;2024-01-30T09:40:27;8.65;;;6.55;;
23684;SDS011;12020;51.384;6.908;2024-01-30T09:42:53;8.40;;;6.28;;
23684;SDS011;12020;51.384;6.908;2024-01-30T09:45:19;8.30;;;6.50;;
23684;SDS011;12020;51.384;6.908;2024-01-30T09:47:49;7.30;;;6.53;;
23684;SDS011;12020;51.384;6.908;2024-01-30T09:50:15;7.28;;;6.25;;
23684;SDS011;12020;51.384;6.908;2024-01-30T09:52:42;7.80;;;6.70;;
23684;SDS011;12020;51.384;6.908;2024-01-30T09:55:12;7.03;;;6.32;;
23684;SDS011;12020;51.384;6.908;2024-01-30T09:57:37;7.30;;;6.40;;
23684;SDS011;12020;51.384;6.908;2024-01-30T10:36:36;10.13;;;7.27;;
23684;SDS011;12020;51.384;6.908;2024-01-30T10:39:09;7.87;;;6.53;;
23684;SDS011;12020;51.384;6.908;2024-01-30T10:41:39;7.93;;;6.65;;
23684;SDS011;12020;51.384;6.908;2024-01-30T10:44:10;7.43;;;6.60;;
23684;SDS011;12020;51.384;6.908;2024-01-30T10:46:37;8.35;;;6.47;;
23684;SDS011;12020;51.384;6.908;2024-01-30T10:49:04;7.88;;;6.15;;
23684;SDS011;12020;51.384;6.908;2024-01-30T10:51:31;8.32;;;6.53;;
23684;SDS011;12020;51.384;6.908;2024-01-30T10:53:57;8.33;;;6.40;;
23684;SDS011;12020;51.384;6.908;2024-01-30T10:56:24;7.60;;;6.55;;
23684;SDS011;12020;51.384;6.908;2024-01-30T10:58:50;7.88;;;6.10;;
23684;SDS011;12020;51.384;6.908;2024-01-30T11:01:20;8.73;;;6.32;;
23684;SDS011;12020;51.384;6.908;2024-01-30T11:03:51;8.20;;;6.40;;
23684;SDS011;12020;51.384;6.908;2024-01-30T11:06:18;8.77;;;6.90;;
23684;SDS011;12020;51.384;6.908;2024-01-30T11:08:45;8.10;;;6.23;;
23684;SDS011;12020;51.384;6.908;2024-01-30T11:11:11;7.78;;;6.03;;
23684;SDS011;12020;51.384;6.908;2024-01-30T11:13:36;9.20;;;6.40;;
23684;SDS011;12020;51.384;6.908;2024-01-30T11:16:06;9.23;;;6.60;;
23684;SDS011;12020;51.384;6.908;2024-01-30T11:18:32;7.35;;;6.13;;
23684;SDS011;12020;51.384;6.908;2024-01-30T11:21:00;8.23;;;6.30;;
23684;SDS011;12020;51.384;6.908;2024-01-30T11:23:30;9.43;;;6.55;;
23684;SDS011;12020;51.384;6.908;2024-01-30T11:25:58;7.70;;;6.38;;
23684;SDS011;12020;51.384;6.908;2024-01-30T11:28:23;7.43;;;6.27;;
23684;SDS011;12020;51.384;6.908;2024-01-30T11:30:49;9.38;;;6.80;;
23684;SDS011;12020;51.384;6.908;2024-01-30T11:33:28;8.38;;;6.80;;
23684;SDS011;12020;51.384;6.908;2024-01-30T11:35:58;8.23;;;6.55;;
23684;SDS011;12020;51.384;6.908;2024-01-30T11:38:25;9.33;;;6.53;;
23684;SDS011;12020;51.384;6.908;2024-01-30T11:40:55;7.97;;;6.53;;
23684;SDS011;12020;51.384;6.908;2024-01-30T11:43:22;9.73;;;7.00;;
23684;SDS011;12020;51.384;6.908;2024-01-30T11:45:48;8.82;;;6.55;;
23684;SDS011;12020;51.384;6.908;2024-01-30T11:48:14;11.88;;;7.18;;
23684;SDS011;12020;51.384;6.908;2024-01-30T11:50:40;8.80;;;6.67;;
23684;SDS011;12020;51.384;6.908;2024-01-30T11:53:06;9.68;;;6.65;;
23684;SDS011;12020;51.384;6.908;2024-01-30T11:55:33;9.80;;;7.13;;
23684;SDS011;12020;51.384;6.908;2024-01-30T11:58:00;10.63;;;7.10;;
23684;SDS011;12020;51.384;6.908;2024-01-30T12:00:27;7.55;;;6.22;;
23684;SDS011;12020;51.384;6.908;2024-01-30T12:02:53;9.07;;;6.77;;
23684;SDS011;12020;51.384;6.908;2024-01-30T12:05:25;9.05;;;6.82;;
23684;SDS011;12020;51.384;6.908;2024-01-30T12:07:51;9.93;;;7.07;;
23684;SDS011;12020;51.384;6.908;2024-01-30T12:10:17;8.55;;;6.90;;
23684;SDS011;12020;51.384;6.908;2024-01-30T12:12:45;9.82;;;7.05;;
23684;SDS011;12020;51.384;6.908;2024-01-30T12:15:12;10.43;;;7.03;;
23684;SDS011;12020;51.384;6.908;2024-01-30T12:17:38;10.32;;;6.82;;
23684;SDS011;12020;51.384;6.908;2024-01-30T12:20:08;10.95;;;7.47;;
23684;SDS011;12020;51.384;6.908;2024-01-30T12:22:46;9.40;;;7.20;;
23684;SDS011;12020;51.384;6.908;2024-01-30T12:25:13;10.50;;;7.38;;
23684;SDS011;12020;51.384;6.908;2024-01-30T12:27:44;10.10;;;7.10;;
23684;SDS011;12020;51.384;6.908;2024-01-30T12:30:17;11.20;;;7.32;;
23684;SDS011;12020;51.384;6.908;2024-01-30T12:32:44;11.65;;;7.28;;
23684;SDS011;12020;51.384;6.908;2024-01-30T12:35:11;11.10;;;7.43;;
23684;SDS011;12020;51.384;6.908;2024-01-30T12:37:45;11.32;;;7.63;;
23684;SDS011;12020;51.384;6.908;2024-01-30T12:40:29;10.63;;;7.13;;
23684;SDS011;12020;51.384;6.908;2024-01-30T12:42:58;10.20;;;7.63;;
23684;SDS011;12020;51.384;6.908;2024-01-30T12:45:24;10.73;;;7.20;;
23684;SDS011;12020;51.384;6.908;2024-01-30T12:47:50;10.00;;;7.22;;
23684;SDS011;12020;51.384;6.908;2024-01-30T12:50:16;11.32;;;7.43;;
23684;SDS011;12020;51.384;6.908;2024-01-30T12:52:42;9.55;;;7.50;;
23684;SDS011;12020;51.384;6.908;2024-01-30T12:55:08;9.47;;;7.20;;
23684;SDS011;12020;51.384;6.908;2024-01-30T12:57:35;12.53;;;7.90;;
23684;SDS011;12020;51.384;6.908;2024-01-30T13:00:00;8.90;;;7.27;;
23684;SDS011;12020;51.384;6.908;2024-01-30T13:02:27;11.60;;;7.43;;
23684;SDS011;12020;51.384;6.908;2024-01-30T13:04:59;10.07;;;7.53;;
23684;SDS011;12020;51.384;6.908;2024-01-30T13:07:25;12.27;;;7.85;;
23684;SDS011;12020;51.384;6.908;2024-01-30T13:09:51;10.18;;;7.68;;
23684;SDS011;12020;51.384;6.908;2024-01-30T13:12:16;14.00;;;7.97;;
23684;SDS011;12020;51.384;6.908;2024-01-30T13:14:42;11.90;;;7.17;;
23684;SDS011;12020;51.384;6.908;2024-01-30T13:17:08;11.07;;;7.67;;
23684;SDS011;12020;51.384;6.908;2024-01-30T13:19:33;10.70;;;7.57;;
23684;SDS011;12020;51.384;6.908;2024-01-30T13:22:01;10.63;;;7.83;;
23684;SDS011;12020;51.384;6.908;2024-01-30T13:24:27;11.30;;;7.90;;
23684;SDS011;12020;51.384;6.908;2024-01-30T13:26:52;9.80;;;7.63;;
23684;SDS011;12020;51.384;6.908;2024-01-30T13:29:18;10.82;;;7.95;;
23684;SDS011;12020;51.384;6.908;2024-01-30T13:31:44;9.90;;;7.78;;
23684;SDS011;12020;51.384;6.908;2024-01-30T13:34:11;9.10;;;7.60;;
23684;SDS011;12020;51.384;6.908;2024-01-30T13:36:37;10.15;;;7.45;;
23684;SDS011;12020;51.384;6.908;2024-01-30T13:39:03;11.00;;;7.63;;
23684;SDS011;12020;51.384;6.908;2024-01-30T13:41:32;9.80;;;7.57;;
23684;SDS011;12020;51.384;6.908;2024-01-30T13:43:58;10.00;;;7.75;;
23684;SDS011;12020;51.384;6.908;2024-01-30T13:46:24;9.93;;;7.73;;
23684;SDS011;12020;51.384;6.908;2024-01-30T13:48:50;10.67;;;8.10;;
23684;SDS011;12020;51.384;6.908;2024-01-30T13:51:16;9.55;;;7.53;;
23684;SDS011;12020;51.384;6.908;2024-01-30T13:53:42;10.93;;;7.30;;
23684;SDS011;12020;51.384;6.908;2024-01-30T13:56:08;9.75;;;7.68;;
23684;SDS011;12020;51.384;6.908;2024-01-30T13:58:33;10.68;;;7.97;;
23684;SDS011;12020;51.384;6.908;2024-01-30T14:01:01;9.45;;;7.75;;
23684;SDS011;12020;51.384;6.908;2024-01-30T14:03:27;9.15;;;7.78;;
23684;SDS011;12020;51.384;6.908;2024-01-30T14:05:53;10.65;;;7.70;;
23684;SDS011;12020;51.384;6.908;2024-01-30T14:08:19;9.88;;;7.85;;
23684;SDS011;12020;51.384;6.908;2024-01-30T14:10:46;10.65;;;7.97;;
23684;SDS011;12020;51.384;6.908;2024-01-30T14:13:12;10.05;;;8.35;;
23684;SDS011;12020;51.384;6.908;2024-01-30T14:15:38;11.43;;;7.97;;
23684;SDS011;12020;51.384;6.908;2024-01-30T14:18:07;11.05;;;7.80;;
23684;SDS011;12020;51.384;6.908;2024-01-30T14:20:33;11.07;;;7.70;;
23684;SDS011;12020;51.384;6.908;2024-01-30T14:22:59;10.98;;;7.85;;
23684;SDS011;12020;51.384;6.908;2024-01-30T14:25:25;10.32;;;8.13;;
23684;SDS011;12020;51.384;6.908;2024-01-30T14:27:51;11.77;;;8.77;;
23684;SDS011;12020;51.384;6.908;2024-01-30T14:30:17;10.73;;;8.88;;
23684;SDS011;12020;51.384;6.908;2024-01-30T14:32:42;11.47;;;9.10;;
23684;SDS011;12020;51.384;6.908;2024-01-30T14:35:09;11.13;;;8.60;;
23684;SDS011;12020;51.384;6.908;2024-01-30T14:37:35;12.07;;;8.55;;
23684;SDS011;12020;51.384;6.908;2024-01-30T14:40:02;10.45;;;8.68;;
23684;SDS011;12020;51.384;6.908;2024-01-30T14:42:28;9.55;;;8.30;;
23684;SDS011;12020;51.384;6.908;2024-01-30T14:44:57;9.77;;;8.23;;
23684;SDS011;12020;51.384;6.908;2024-01-30T14:47:23;12.13;;;8.73;;
23684;SDS011;12020;51.384;6.908;2024-01-30T14:49:49;11.23;;;7.95;;
23684;SDS011;12020;51.384;6.908;2024-01-30T14:52:15;10.93;;;8.30;;
23684;SDS011;12020;51.384;6.908;2024-01-30T14:54:40;10.27;;;7.97;;
23684;SDS011;12020;51.384;6.908;2024-01-30T14:57:06;9.33;;;8.37;;
23684;SDS011;12020;51.384;6.908;2024-01-30T14:59:33;11.25;;;7.80;;
23684;SDS011;12020;51.384;6.908;2024-01-30T15:01:59;12.05;;;8.10;;
23684;SDS011;12020;51.384;6.908;2024-01-30T15:04:25;11.10;;;7.80;;
23684;SDS011;12020;51.384;6.908;2024-01-30T15:06:50;9.43;;;7.45;;
23684;SDS011;12020;51.384;6.908;2024-01-30T15:09:16;8.23;;;7.22;;
23684;SDS011;12020;51.384;6.908;2024-01-30T15:11:43;8.80;;;6.88;;
23684;SDS011;12020;51.384;6.908;2024-01-30T15:14:09;9.90;;;6.40;;
23684;SDS011;12020;51.384;6.908;2024-01-30T15:16:35;11.07;;;7.00;;
23684;SDS011;12020;51.384;6.908;2024-01-30T15:19:01;8.87;;;6.67;;
23684;SDS011;12020;51.384;6.908;2024-01-30T15:21:28;8.10;;;6.40;;
23684;SDS011;12020;51.384;6.908;2024-01-30T15:23:54;8.63;;;6.32;;
23684;SDS011;12020;51.384;6.908;2024-01-30T15:26:20;9.07;;;6.63;;
23684;SDS011;12020;51.384;6.908;2024-01-30T15:28:46;8.68;;;6.45;;
23684;SDS011;12020;51.384;6.908;2024-01-30T15:31:12;10.23;;;6.70;;
23684;SDS011;12020;51.384;6.908;2024-01-30T15:33:38;8.97;;;6.53;;
23684;SDS011;12020;51.384;6.908;2024-01-30T15:36:04;7.85;;;6.57;;
23684;SDS011;12020;51.384;6.908;2024-01-30T15:38:30;6.87;;;5.77;;
23684;SDS011;12020;51.384;6.908;2024-01-30T15:40:56;8.47;;;5.30;;
23684;SDS011;12020;51.384;6.908;2024-01-30T15:43:22;7.93;;;4.65;;
23684;SDS011;12020;51.384;6.908;2024-01-30T15:45:48;6.75;;;4.53;;
23684;SDS011;12020;51.384;6.908;2024-01-30T15:48:17;6.07;;;4.32;;
23684;SDS011;12020;51.384;6.908;2024-01-30T15:50:46;6.22;;;3.50;;
23684;SDS011;12020;51.384;6.908;2024-01-30T15:53:12;5.03;;;2.80;;
23684;SDS011;12020;51.384;6.908;2024-01-30T15:55:38;5.15;;;2.40;;
23684;SDS011;12020;51.384;6.908;2024-01-30T15:58:04;3.97;;;1.93;;
23684;SDS011;12020;51.384;6.908;2024-01-30T16:00:30;4.33;;;2.20;;
23684;SDS011;12020;51.384;6.908;2024-01-30T16:02:56;3.47;;;1.50;;
23684;SDS011;12020;51.384;6.908;2024-01-30T16:05:25;3.17;;;1.55;;
23684;SDS011;12020;51.384;6.908;2024-01-30T16:07:50;2.30;;;1.50;;
23684;SDS011;12020;51.384;6.908;2024-01-30T16:10:16;4.00;;;1.40;;
23684;SDS011;12020;51.384;6.908;2024-01-30T16:12:42;2.45;;;1.45;;
23684;SDS011;12020;51.384;6.908;2024-01-30T16:15:14;4.07;;;1.55;;
23684;SDS011;12020;51.384;6.908;2024-01-30T16:17:41;3.13;;;1.58;;
23684;SDS011;12020;51.384;6.908;2024-01-30T16:20:07;3.58;;;1.30;;
23684;SDS011;12020;51.384;6.908;2024-01-30T16:22:33;2.65;;;1.25;;